Time;durP1;ratioP1;P1;durP2;ratioP2;P2;SDS_P1;SDS_P2;PMS_P1;PMS_P2;Temp;Humidity;BMP_temperature;BMP_pressure;BME280_temperature;BME280_humidity;BME280_pressure;Samples;Min_cycle;Max_cycle;Signal;HPM_P1;HPM_P2
2022/06/05 00:01:37;;;;;;;;;;;22.80;99.90;;;;;;5066619;28;19912;-71
2022/06/05 00:04:11;;;;;;;;;;;22.80;99.90;;;;;;5071349;28;19934;-71
2022/06/05 00:06:37;;;;;;;;;;;22.80;99.90;;;;;;5079715;28;20315;-71
2022/06/05 00:09:11;;;;;;;;;;;22.70;99.90;;;;;;5081288;28;19942;-72
2022/06/05 00:11:46;;;;;;;;;;;22.70;99.90;;;;;;5067654;28;20031;-71
2022/06/05 00:14:11;;;;;;;;;;;22.70;99.90;;;;;;5071066;28;19916;-71
2022/06/05 00:16:37;;;;;;;;;;;22.80;99.90;;;;;;5067870;28;19912;-72
2022/06/05 00:19:03;;;;;;;;;;;22.80;99.90;;;;;;5068699;28;19912;-73
2022/06/05 00:21:28;;;;;;;;;;;22.70;99.90;;;;;;5064389;28;19923;-71
2022/06/05 00:23:54;;;;;;;;;;;22.70;99.90;;;;;;5084806;28;19994;-72
2022/06/05 00:26:20;;;;;;;;;;;22.60;99.90;;;;;;5072246;28;20053;-72
2022/06/05 00:29:04;;;;;;;;;;;22.60;99.90;;;;;;5067396;28;19912;-71
2022/06/05 00:31:39;;;;;;;;;;;22.60;99.90;;;;;;5068683;28;19923;-71
2022/06/05 00:34:04;;;;;;;;;;;22.50;99.90;;;;;;5068336;28;20361;-71
2022/06/05 00:36:37;;;;;;;;;;;22.50;99.90;;;;;;5068460;28;19940;-71
2022/06/05 00:39:09;;;;;;;;;;;22.50;99.90;;;;;;5062979;28;19912;-71
2022/06/05 00:41:49;;;;;;;;;;;22.40;99.90;;;;;;5062901;28;19943;-72
2022/06/05 00:44:18;;;;;;;;;;;22.40;99.90;;;;;;5089300;28;20400;-72
2022/06/05 00:46:45;;;;;;;;;;;22.50;99.90;;;;;;5068322;28;19961;-70
2022/06/05 00:49:11;;;;;;;;;;;22.50;99.90;;;;;;5085145;28;19912;-72
2022/06/05 00:51:37;;;;;;;;;;;22.50;99.90;;;;;;5071076;28;20033;-71
2022/06/05 00:54:03;;;;;;;;;;;22.30;99.90;;;;;;5071574;28;19920;-71
2022/06/05 00:56:29;;;;;;;;;;;22.20;99.90;;;;;;5087997;28;19923;-71
2022/06/05 00:58:54;;;;;;;;;;;22.20;99.90;;;;;;5076349;28;20384;-72
2022/06/05 01:01:20;;;;;;;;;;;22.10;99.90;;;;;;5072307;28;19916;-72
2022/06/05 01:03:46;;;;;;;;;;;22.10;99.90;;;;;;5093452;28;19943;-70
2022/06/05 01:06:13;;;;;;;;;;;22.00;99.90;;;;;;5067003;28;19908;-73
2022/06/05 01:08:39;;;;;;;;;;;22.00;99.90;;;;;;5062286;28;19920;-70
2022/06/05 01:11:10;;;;;;;;;;;22.00;99.90;;;;;;5066801;28;19909;-71
2022/06/05 01:13:41;;;;;;;;;;;22.10;99.90;;;;;;5091240;28;20427;-74
2022/06/05 01:16:10;;;;;;;;;;;22.10;99.90;;;;;;5069711;28;19908;-73
2022/06/05 01:18:45;;;;;;;;;;;22.10;99.90;;;;;;5076418;28;20531;-72
2022/06/05 01:21:30;;;;;;;;;;;22.20;99.90;;;;;;5080822;28;20172;-72
2022/06/05 01:24:19;;;;;;;;;;;22.20;99.90;;;;;;5054433;28;19952;-74
2022/06/05 01:26:50;;;;;;;;;;;22.10;99.90;;;;;;5049082;28;19909;-73
2022/06/05 01:29:21;;;;;;;;;;;22.20;99.90;;;;;;5066079;28;20469;-73
2022/06/05 01:31:56;;;;;;;;;;;22.30;99.90;;;;;;5069819;28;19951;-75
2022/06/05 01:34:25;;;;;;;;;;;22.30;99.90;;;;;;5076802;28;19918;-72
2022/06/05 01:37:06;;;;;;;;;;;22.40;99.90;;;;;;5076478;28;21052;-72
2022/06/05 01:39:38;;;;;;;;;;;22.40;99.90;;;;;;5057132;28;19962;-72
2022/06/05 01:42:09;;;;;;;;;;;22.40;99.90;;;;;;5079480;28;20285;-72
2022/06/05 01:44:37;;;;;;;;;;;22.40;99.90;;;;;;5076225;28;19909;-73
2022/06/05 01:47:05;;;;;;;;;;;22.40;99.90;;;;;;5075811;28;19916;-74
2022/06/05 01:49:36;;;;;;;;;;;22.40;99.90;;;;;;5058877;28;19999;-72
2022/06/05 01:52:18;;;;;;;;;;;22.40;99.90;;;;;;5069605;28;19942;-70
2022/06/05 01:54:50;;;;;;;;;;;22.40;99.90;;;;;;5075833;28;19920;-71
2022/06/05 01:57:17;;;;;;;;;;;22.40;99.90;;;;;;5074798;28;20294;-71
2022/06/05 01:59:48;;;;;;;;;;;22.30;99.90;;;;;;5076111;28;20378;-71
2022/06/05 02:02:17;;;;;;;;;;;22.30;99.90;;;;;;5074617;28;19985;-73
2022/06/05 02:04:55;;;;;;;;;;;22.30;99.90;;;;;;5070169;28;19915;-73
2022/06/05 02:07:24;;;;;;;;;;;22.40;99.90;;;;;;5064863;28;19923;-72
2022/06/05 02:10:02;;;;;;;;;;;22.50;99.90;;;;;;5058948;28;20409;-71
2022/06/05 02:12:28;;;;;;;;;;;22.50;99.90;;;;;;5073313;28;20034;-71
2022/06/05 02:14:54;;;;;;;;;;;22.40;99.90;;;;;;5075465;28;19999;-73
2022/06/05 02:17:20;;;;;;;;;;;22.30;99.90;;;;;;5073965;28;19932;-71
2022/06/05 02:19:46;;;;;;;;;;;22.40;99.90;;;;;;5064723;28;20281;-72
2022/06/05 02:22:34;;;;;;;;;;;22.30;99.90;;;;;;5068583;28;19916;-71
2022/06/05 02:25:00;;;;;;;;;;;22.30;99.90;;;;;;5062833;28;20250;-72
2022/06/05 02:27:26;;;;;;;;;;;22.30;99.90;;;;;;5067645;28;19930;-71
2022/06/05 02:29:52;;;;;;;;;;;22.40;99.90;;;;;;5074660;28;19916;-70
2022/06/05 02:32:18;;;;;;;;;;;22.30;99.90;;;;;;5094551;28;19939;-71
2022/06/05 02:34:53;;;;;;;;;;;22.30;99.90;;;;;;5074172;28;19958;-71
2022/06/05 02:37:25;;;;;;;;;;;22.30;99.90;;;;;;5091620;28;19981;-72
2022/06/05 02:40:08;;;;;;;;;;;22.30;99.90;;;;;;5070836;28;20011;-73
2022/06/05 02:42:53;;;;;;;;;;;22.30;99.90;;;;;;5056809;28;19944;-71
2022/06/05 02:45:21;;;;;;;;;;;22.30;99.90;;;;;;5087305;28;19919;-71
2022/06/05 02:48:06;;;;;;;;;;;22.20;99.90;;;;;;5055133;28;19908;-73
2022/06/05 02:50:51;;;;;;;;;;;22.30;99.90;;;;;;5069846;28;19985;-73
2022/06/05 02:53:17;;;;;;;;;;;22.30;99.90;;;;;;5054634;28;19909;-74
2022/06/05 02:55:43;;;;;;;;;;;22.40;99.90;;;;;;5076285;28;19977;-72
2022/06/05 02:58:09;;;;;;;;;;;22.30;99.90;;;;;;5064665;28;19908;-72
2022/06/05 03:00:37;;;;;;;;;;;22.30;99.90;;;;;;5068741;28;19913;-73
2022/06/05 03:05:47;;;;;;;;;;;22.30;99.90;;;;;;5090894;28;20261;-73
2022/06/05 03:08:15;;;;;;;;;;;22.40;99.90;;;;;;5073438;28;19912;-73
2022/06/05 03:10:41;;;;;;;;;;;22.50;99.90;;;;;;5073363;28;19915;-73
2022/06/05 03:13:07;;;;;;;;;;;22.40;99.90;;;;;;5073175;28;19915;-72
2022/06/05 03:15:33;;;;;;;;;;;22.50;99.90;;;;;;5060230;28;19917;-72
2022/06/05 03:17:59;;;;;;;;;;;22.50;99.90;;;;;;5056819;28;19920;-72
2022/06/05 03:20:24;;;;;;;;;;;22.40;99.90;;;;;;5072446;28;19926;-71
2022/06/05 03:22:50;;;;;;;;;;;22.40;99.90;;;;;;5072211;28;19908;-71
2022/06/05 03:25:18;;;;;;;;;;;22.40;99.90;;;;;;5054514;28;20352;-71
2022/06/05 03:27:44;;;;;;;;;;;22.30;99.90;;;;;;5053139;28;20396;-73
2022/06/05 03:30:10;;;;;;;;;;;22.40;99.90;;;;;;5072506;28;19916;-71
2022/06/05 03:32:35;;;;;;;;;;;22.50;99.90;;;;;;5059101;28;19958;-72
2022/06/05 03:35:01;;;;;;;;;;;22.50;99.90;;;;;;5053136;28;19996;-71
2022/06/05 03:37:27;;;;;;;;;;;22.60;99.90;;;;;;5065818;28;19958;-71
2022/06/05 03:39:53;;;;;;;;;;;22.60;99.90;;;;;;5066524;28;19938;-72
2022/06/05 03:42:18;;;;;;;;;;;22.70;99.90;;;;;;5071643;28;20254;-73
2022/06/05 03:44:44;;;;;;;;;;;22.70;99.90;;;;;;5061356;28;19979;-74
2022/06/05 03:47:10;;;;;;;;;;;22.80;99.90;;;;;;5072418;28;19909;-70
2022/06/05 03:49:36;;;;;;;;;;;22.80;99.90;;;;;;5071860;28;19920;-71
2022/06/05 03:52:05;;;;;;;;;;;22.80;99.90;;;;;;5067633;28;20399;-71
2022/06/05 03:54:31;;;;;;;;;;;22.90;99.90;;;;;;5069248;28;20385;-74
2022/06/05 03:56:57;;;;;;;;;;;22.90;99.90;;;;;;5074420;28;20010;-71
2022/06/05 03:59:23;;;;;;;;;;;22.90;99.90;;;;;;5066152;28;19953;-72
2022/06/05 04:01:48;;;;;;;;;;;22.90;99.90;;;;;;5066819;28;19921;-70
2022/06/05 04:04:14;;;;;;;;;;;22.90;99.90;;;;;;5071162;28;19920;-72
2022/06/05 04:06:40;;;;;;;;;;;22.90;99.90;;;;;;5068949;28;19938;-71
2022/06/05 04:09:06;;;;;;;;;;;23.00;99.90;;;;;;5064306;28;19919;-71
2022/06/05 04:11:33;;;;;;;;;;;23.10;99.90;;;;;;5072234;28;20279;-72
2022/06/05 04:13:59;;;;;;;;;;;23.10;99.90;;;;;;5065298;28;19919;-71
2022/06/05 04:16:26;;;;;;;;;;;23.10;99.90;;;;;;5066017;28;20003;-70
2022/06/05 04:18:52;;;;;;;;;;;23.10;99.90;;;;;;5075091;28;19941;-72
2022/06/05 04:21:20;;;;;;;;;;;23.20;99.90;;;;;;5073127;28;19913;-71
2022/06/05 04:23:46;;;;;;;;;;;23.20;99.90;;;;;;5056386;28;19990;-74
2022/06/05 04:26:14;;;;;;;;;;;23.40;99.90;;;;;;5049751;28;20647;-73
2022/06/05 04:28:40;;;;;;;;;;;23.40;99.90;;;;;;5050573;28;19912;-72
2022/06/05 04:31:15;;;;;;;;;;;23.50;99.90;;;;;;5063339;28;19916;-71
2022/06/05 04:33:40;;;;;;;;;;;23.50;99.90;;;;;;5068082;28;19913;-70
2022/06/05 04:36:06;;;;;;;;;;;23.50;99.90;;;;;;5064474;28;19927;-72
2022/06/05 04:38:31;;;;;;;;;;;23.60;99.90;;;;;;5068472;28;20368;-70
2022/06/05 04:40:57;;;;;;;;;;;23.60;99.90;;;;;;5064830;28;19916;-71
2022/06/05 04:43:23;;;;;;;;;;;23.70;99.90;;;;;;5067965;28;19961;-71
2022/06/05 04:45:48;;;;;;;;;;;23.70;99.90;;;;;;5080208;28;19961;-72
2022/06/05 04:48:14;;;;;;;;;;;23.90;99.90;;;;;;5071461;28;20377;-72
2022/06/05 04:50:40;;;;;;;;;;;24.00;99.90;;;;;;5069252;28;19924;-72
2022/06/05 04:53:05;;;;;;;;;;;24.20;99.90;;;;;;5071482;28;19908;-71
2022/06/05 04:55:31;;;;;;;;;;;24.20;99.90;;;;;;5059751;28;20392;-71
2022/06/05 04:57:57;;;;;;;;;;;24.20;99.90;;;;;;5071856;28;19919;-72
2022/06/05 05:00:23;;;;;;;;;;;24.30;99.90;;;;;;5075200;28;19927;-71
2022/06/05 05:02:49;;;;;;;;;;;24.30;99.90;;;;;;5070862;28;19956;-74
2022/06/05 05:05:14;;;;;;;;;;;24.40;99.90;;;;;;5069086;28;19912;-72
2022/06/05 05:07:49;;;;;;;;;;;24.50;99.90;;;;;;5063690;28;19909;-71
2022/06/05 05:10:14;;;;;;;;;;;24.60;99.90;;;;;;5058993;28;19916;-74
2022/06/05 05:12:40;;;;;;;;;;;24.70;99.90;;;;;;5073180;28;19919;-71
2022/06/05 05:15:07;;;;;;;;;;;24.80;99.90;;;;;;5066255;28;19912;-73
2022/06/05 05:17:32;;;;;;;;;;;24.90;99.90;;;;;;5059108;28;19918;-71
2022/06/05 05:19:58;;;;;;;;;;;25.00;99.90;;;;;;5069120;28;20007;-72
2022/06/05 05:22:24;;;;;;;;;;;25.10;99.90;;;;;;5073541;28;19985;-72
2022/06/05 05:24:49;;;;;;;;;;;25.20;99.90;;;;;;5062655;28;20308;-73
2022/06/05 05:27:15;;;;;;;;;;;25.30;99.90;;;;;;5062293;28;19912;-73
2022/06/05 05:29:41;;;;;;;;;;;25.30;99.90;;;;;;5058701;28;19938;-71
2022/06/05 05:32:08;;;;;;;;;;;25.50;99.90;;;;;;5079169;28;20342;-73
2022/06/05 05:34:47;;;;;;;;;;;25.60;99.90;;;;;;5067894;28;20127;-71
2022/06/05 05:37:16;;;;;;;;;;;25.60;99.90;;;;;;5077205;28;19974;-72
2022/06/05 05:42:26;;;;;;;;;;;25.50;99.90;;;;;;5084321;28;20015;-72
2022/06/05 05:44:51;;;;;;;;;;;25.60;99.90;;;;;;5081887;28;20213;-72
2022/06/05 05:47:19;;;;;;;;;;;25.50;99.90;;;;;;5060473;28;20329;-74
2022/06/05 05:49:45;;;;;;;;;;;25.50;99.90;;;;;;5063111;28;19959;-73
2022/06/05 05:52:11;;;;;;;;;;;25.50;99.90;;;;;;5065043;28;20379;-72
2022/06/05 05:54:37;;;;;;;;;;;25.60;99.90;;;;;;5065045;28;20318;-72
2022/06/05 05:57:03;;;;;;;;;;;25.70;99.90;;;;;;5084527;28;19998;-74
2022/06/05 05:59:29;;;;;;;;;;;25.80;99.90;;;;;;5069367;28;19912;-72
2022/06/05 06:01:55;;;;;;;;;;;25.80;99.90;;;;;;5069568;28;19908;-72
2022/06/05 06:04:20;;;;;;;;;;;25.80;99.90;;;;;;5091680;28;19920;-73
2022/06/05 06:06:48;;;;;;;;;;;25.90;99.90;;;;;;5074231;28;20289;-72
2022/06/05 06:09:15;;;;;;;;;;;26.00;99.90;;;;;;5068015;28;19980;-72
2022/06/05 06:11:40;;;;;;;;;;;26.10;99.90;;;;;;5064471;28;20011;-72
2022/06/05 06:14:06;;;;;;;;;;;26.30;99.90;;;;;;5068893;28;20409;-71
2022/06/05 06:16:32;;;;;;;;;;;26.60;99.90;;;;;;5073488;28;19998;-73
2022/06/05 06:18:58;;;;;;;;;;;26.80;99.90;;;;;;5070198;28;19916;-73
2022/06/05 06:21:24;;;;;;;;;;;26.80;99.90;;;;;;5062068;28;19912;-71
2022/06/05 06:23:49;;;;;;;;;;;27.00;99.90;;;;;;5067803;28;20362;-71
2022/06/05 06:26:15;;;;;;;;;;;27.10;99.90;;;;;;5069093;28;20042;-73
2022/06/05 06:28:41;;;;;;;;;;;27.30;99.90;;;;;;5075520;28;20362;-71
2022/06/05 06:31:12;;;;;;;;;;;27.40;99.90;;;;;;5065676;28;19921;-71
2022/06/05 06:33:39;;;;;;;;;;;27.50;99.90;;;;;;5069069;28;19912;-72
2022/06/05 06:36:09;;;;;;;;;;;27.50;99.90;;;;;;5070278;28;19985;-71
2022/06/05 06:38:35;;;;;;;;;;;27.50;99.90;;;;;;5066139;28;20390;-67
2022/06/05 06:41:11;;;;;;;;;;;27.60;99.90;;;;;;5074202;28;20120;-63
2022/06/05 06:43:38;;;;;;;;;;;27.40;99.90;;;;;;5074281;28;19920;-69
2022/06/05 06:46:04;;;;;;;;;;;27.20;99.90;;;;;;5076089;28;19965;-64
2022/06/05 06:48:30;;;;;;;;;;;26.90;99.90;;;;;;5070291;28;19913;-68
2022/06/05 06:50:56;;;;;;;;;;;26.80;99.90;;;;;;5080747;28;19932;-68
2022/06/05 06:53:22;;;;;;;;;;;26.80;99.90;;;;;;5076024;28;19939;-66
2022/06/05 06:55:48;;;;;;;;;;;26.70;99.90;;;;;;5062630;28;19917;-73
2022/06/05 06:58:14;;;;;;;;;;;26.60;99.90;;;;;;5062341;28;19916;-72
2022/06/05 07:00:40;;;;;;;;;;;26.60;99.90;;;;;;5066842;28;20342;-74
2022/06/05 07:03:06;;;;;;;;;;;26.60;99.90;;;;;;5064566;28;19972;-72
2022/06/05 07:05:32;;;;;;;;;;;26.80;99.90;;;;;;5084927;28;20549;-71
2022/06/05 07:07:57;;;;;;;;;;;26.90;99.90;;;;;;5061652;28;19912;-72
2022/06/05 07:10:23;;;;;;;;;;;26.90;99.90;;;;;;5084502;28;20018;-71
2022/06/05 07:12:49;;;;;;;;;;;27.00;99.90;;;;;;5064450;28;19971;-73
2022/06/05 07:15:14;;;;;;;;;;;27.10;99.90;;;;;;5079068;28;19975;-72
2022/06/05 07:17:40;;;;;;;;;;;27.10;99.90;;;;;;5064218;28;19965;-73
2022/06/05 07:20:06;;;;;;;;;;;27.00;99.90;;;;;;5063813;28;19938;-72
2022/06/05 07:22:32;;;;;;;;;;;27.10;99.90;;;;;;5068161;28;19912;-72
2022/06/05 07:24:58;;;;;;;;;;;27.10;99.90;;;;;;5082504;28;19927;-72
2022/06/05 07:27:25;;;;;;;;;;;27.10;99.90;;;;;;5067557;28;20002;-71
2022/06/05 07:29:51;;;;;;;;;;;27.20;99.90;;;;;;5066221;28;19995;-71
2022/06/05 07:32:17;;;;;;;;;;;27.30;99.90;;;;;;5069815;28;20832;-73
2022/06/05 07:34:43;;;;;;;;;;;27.40;99.90;;;;;;5056024;28;19930;-72
2022/06/05 07:37:08;;;;;;;;;;;27.60;99.90;;;;;;5066399;28;19912;-72
2022/06/05 07:39:34;;;;;;;;;;;27.60;99.90;;;;;;5057281;28;19908;-72
2022/06/05 07:42:00;;;;;;;;;;;27.70;99.90;;;;;;5067674;28;19912;-72
2022/06/05 07:44:26;;;;;;;;;;;27.70;99.90;;;;;;5083757;28;19926;-72
2022/06/05 07:46:52;;;;;;;;;;;27.80;99.90;;;;;;5062026;28;19913;-73
2022/06/05 07:49:18;;;;;;;;;;;28.00;99.90;;;;;;5066360;28;19950;-73
2022/06/05 07:54:33;;;;;;;;;;;28.10;99.90;;;;;;5077925;28;19966;-72
2022/06/05 07:57:07;;;;;;;;;;;28.30;99.90;;;;;;5068795;28;20334;-72
2022/06/05 07:59:34;;;;;;;;;;;28.40;99.90;;;;;;5066955;28;20430;-72
2022/06/05 08:02:03;;;;;;;;;;;28.20;99.90;;;;;;5070288;28;19912;-73
2022/06/05 08:04:30;;;;;;;;;;;28.10;99.90;;;;;;5081202;28;19962;-72
2022/06/05 08:06:57;;;;;;;;;;;28.10;99.90;;;;;;5070456;28;20334;-73
2022/06/05 08:09:23;;;;;;;;;;;28.10;99.90;;;;;;5072684;28;19908;-72
2022/06/05 08:11:49;;;;;;;;;;;28.10;99.90;;;;;;5060153;28;19913;-73
2022/06/05 08:14:14;;;;;;;;;;;28.30;99.90;;;;;;5066926;28;20297;-71
2022/06/05 08:16:43;;;;;;;;;;;28.30;99.90;;;;;;5073394;28;20298;-73
2022/06/05 08:19:09;;;;;;;;;;;28.50;99.90;;;;;;5070091;28;19912;-73
2022/06/05 08:21:35;;;;;;;;;;;28.70;99.90;;;;;;5082401;28;19912;-69
2022/06/05 08:24:01;;;;;;;;;;;28.90;99.90;;;;;;5085063;28;19908;-67
2022/06/05 08:26:26;;;;;;;;;;;29.00;99.90;;;;;;5070715;28;19987;-66
2022/06/05 08:28:52;;;;;;;;;;;29.10;99.90;;;;;;5060136;28;20381;-66
2022/06/05 08:31:18;;;;;;;;;;;29.10;99.90;;;;;;5080569;28;19995;-66
2022/06/05 08:33:44;;;;;;;;;;;29.00;99.90;;;;;;5068393;28;21756;-65
2022/06/05 08:36:10;;;;;;;;;;;28.80;99.90;;;;;;5063672;28;19927;-67
2022/06/05 08:41:32;;;;;;;;;;;28.70;99.90;;;;;;5078466;28;19919;-66
2022/06/05 08:44:04;;;;;;;;;;;28.80;99.90;;;;;;5076952;28;19912;-66
2022/06/05 08:46:36;;;;;;;;;;;28.80;99.90;;;;;;5069438;28;19912;-64
2022/06/05 08:49:04;;;;;;;;;;;28.90;99.90;;;;;;5081653;28;19919;-66
2022/06/05 08:51:40;;;;;;;;;;;29.00;99.90;;;;;;5069843;28;19927;-66
2022/06/05 08:54:06;;;;;;;;;;;29.00;99.90;;;;;;5062097;28;20381;-66
2022/06/05 08:56:32;;;;;;;;;;;29.00;99.90;;;;;;5091577;28;19941;-64
2022/06/05 08:59:00;;;;;;;;;;;29.00;99.90;;;;;;5070871;28;19927;-66
2022/06/05 09:01:31;;;;;;;;;;;29.00;99.90;;;;;;5081239;28;19920;-64
2022/06/05 09:04:03;;;;;;;;;;;29.00;99.90;;;;;;5084231;28;19909;-63
2022/06/05 09:06:33;;;;;;;;;;;28.90;99.90;;;;;;5061329;28;20354;-65
2022/06/05 09:09:00;;;;;;;;;;;28.90;99.90;;;;;;5065560;28;19920;-67
2022/06/05 09:11:41;;;;;;;;;;;29.00;99.90;;;;;;5086249;28;19995;-66
2022/06/05 09:14:23;;;;;;;;;;;28.90;99.90;;;;;;5081668;28;19919;-73
2022/06/05 09:16:50;;;;;;;;;;;29.00;99.90;;;;;;5082190;28;19987;-72
2022/06/05 09:19:23;;;;;;;;;;;29.20;99.90;;;;;;5069062;28;20003;-71
2022/06/05 09:21:52;;;;;;;;;;;29.20;99.90;;;;;;5073088;28;20265;-71
2022/06/05 09:24:37;;;;;;;;;;;29.10;99.90;;;;;;5071830;28;19912;-70
2022/06/05 09:27:09;;;;;;;;;;;29.20;99.90;;;;;;5066200;28;19912;-71
2022/06/05 09:29:45;;;;;;;;;;;29.40;99.90;;;;;;5062983;28;19916;-71
2022/06/05 09:32:30;;;;;;;;;;;29.40;99.90;;;;;;5072598;28;19913;-71
2022/06/05 09:34:55;;;;;;;;;;;29.70;99.90;;;;;;5070551;28;19951;-72
2022/06/05 09:37:35;;;;;;;;;;;29.80;99.90;;;;;;5068089;28;19962;-72
2022/06/05 09:40:15;;;;;;;;;;;29.80;99.90;;;;;;5074329;28;19962;-73
2022/06/05 09:42:57;;;;;;;;;;;29.80;99.90;;;;;;5073349;28;19912;-71
2022/06/05 09:45:33;;;;;;;;;;;29.80;99.90;;;;;;5066717;28;19973;-71
2022/06/05 09:48:01;;;;;;;;;;;29.80;99.90;;;;;;5062747;28;19912;-70
2022/06/05 09:50:28;;;;;;;;;;;29.80;99.90;;;;;;5063920;28;19966;-71
2022/06/05 09:52:54;;;;;;;;;;;29.80;99.90;;;;;;5070990;28;19951;-71
2022/06/05 09:55:21;;;;;;;;;;;29.90;99.90;;;;;;5065570;28;20290;-70
2022/06/05 09:58:25;;;;;;;;;;;29.90;99.90;;;;;;5065682;28;19998;-71
2022/06/05 10:01:16;;;;;;;;;;;29.90;99.90;;;;;;5060639;28;20374;-71
2022/06/05 10:03:42;;;;;;;;;;;29.90;99.90;;;;;;5057729;28;20014;-71
2022/06/05 10:06:14;;;;;;;;;;;29.90;99.90;;;;;;5078847;28;19919;-72
2022/06/05 10:08:59;;;;;;;;;;;29.80;99.90;;;;;;5061036;28;20298;-72
2022/06/05 10:11:33;;;;;;;;;;;29.80;99.90;;;;;;5066677;28;20017;-71
2022/06/05 10:14:04;;;;;;;;;;;29.80;99.90;;;;;;5073676;28;19908;-72
2022/06/05 10:16:39;;;;;;;;;;;29.90;99.90;;;;;;5062672;28;19912;-71
2022/06/05 10:19:04;;;;;;;;;;;29.70;99.90;;;;;;5062100;28;19912;-71
2022/06/05 10:21:34;;;;;;;;;;;29.50;99.90;;;;;;5071789;28;20250;-71
2022/06/05 10:24:03;;;;;;;;;;;29.30;99.90;;;;;;5073587;28;20009;-72
2022/06/05 10:26:29;;;;;;;;;;;29.20;99.90;;;;;;5064642;28;19909;-70
2022/06/05 10:29:10;;;;;;;;;;;29.10;99.90;;;;;;5072322;28;19919;-72
2022/06/05 10:31:36;;;;;;;;;;;29.00;99.90;;;;;;5084653;28;19939;-72
2022/06/05 10:34:20;;;;;;;;;;;29.00;99.90;;;;;;5055549;28;19908;-72
2022/06/05 10:36:46;;;;;;;;;;;29.00;99.90;;;;;;5074369;28;19908;-72
2022/06/05 10:39:15;;;;;;;;;;;29.10;99.90;;;;;;5083388;28;19919;-72
2022/06/05 10:41:49;;;;;;;;;;;29.10;99.90;;;;;;5101258;28;19981;-73
2022/06/05 10:44:17;;;;;;;;;;;29.10;99.90;;;;;;5078037;28;20755;-72
2022/06/05 10:46:59;;;;;;;;;;;29.00;99.90;;;;;;5062495;28;19913;-72
2022/06/05 10:49:28;;;;;;;;;;;28.90;99.90;;;;;;5083666;28;20374;-70
2022/06/05 10:52:02;;;;;;;;;;;29.10;99.90;;;;;;5068076;28;19959;-72
2022/06/05 10:54:46;;;;;;;;;;;29.30;99.90;;;;;;5075177;28;19983;-72
2022/06/05 10:57:38;;;;;;;;;;;29.50;99.90;;;;;;5076681;28;19924;-73
2022/06/05 11:00:14;;;;;;;;;;;29.60;99.90;;;;;;5065700;28;19916;-71
2022/06/05 11:02:40;;;;;;;;;;;29.60;99.90;;;;;;5072627;28;19912;-72
2022/06/05 11:05:26;;;;;;;;;;;29.50;99.90;;;;;;5057621;28;20305;-74
2022/06/05 11:08:27;;;;;;;;;;;29.60;99.90;;;;;;5086822;28;19995;-73
2022/06/05 11:13:54;;;;;;;;;;;30.10;99.90;;;;;;5071564;28;19939;-71
2022/06/05 11:16:23;;;;;;;;;;;30.40;99.90;;;;;;5068213;28;20348;-71
2022/06/05 11:19:04;;;;;;;;;;;30.70;99.90;;;;;;5091411;28;19979;-72
2022/06/05 11:21:30;;;;;;;;;;;30.80;99.90;;;;;;5068861;28;19916;-72
2022/06/05 11:23:57;;;;;;;;;;;30.80;99.90;;;;;;5061017;28;20016;-72
2022/06/05 11:26:23;;;;;;;;;;;30.60;99.90;;;;;;5073555;28;19956;-70
2022/06/05 11:29:01;;;;;;;;;;;30.40;99.90;;;;;;5079396;28;19955;-71
2022/06/05 11:31:26;;;;;;;;;;;30.40;99.90;;;;;;5071461;28;19927;-72
2022/06/05 11:33:57;;;;;;;;;;;30.70;99.90;;;;;;5065830;28;20011;-72
2022/06/05 11:36:28;;;;;;;;;;;30.70;99.90;;;;;;5066731;28;19923;-72
2022/06/05 11:39:10;;;;;;;;;;;30.80;99.90;;;;;;5092599;28;19918;-70
2022/06/05 11:41:39;;;;;;;;;;;30.80;99.90;;;;;;5082172;28;20038;-71
2022/06/05 11:44:27;;;;;;;;;;;30.90;99.90;;;;;;5057110;28;20400;-73
2022/06/05 11:46:57;;;;;;;;;;;30.70;99.90;;;;;;5032664;28;19935;-71
2022/06/05 11:49:29;;;;;;;;;;;30.20;99.90;;;;;;5060218;28;19920;-72
2022/06/05 11:52:07;;;;;;;;;;;30.00;99.90;;;;;;5070675;28;19939;-73
2022/06/05 11:54:46;;;;;;;;;;;29.70;99.90;;;;;;5063940;28;20051;-73
2022/06/05 11:57:16;;;;;;;;;;;29.10;99.90;;;;;;5060756;28;19916;-71
2022/06/05 11:59:55;;;;;;;;;;;28.60;99.90;;;;;;5059506;28;19995;-74
2022/06/05 12:02:27;;;;;;;;;;;28.30;99.90;;;;;;5071042;28;19927;-71
2022/06/05 12:04:59;;;;;;;;;;;27.90;99.90;;;;;;5090544;28;19909;-71
2022/06/05 12:07:25;;;;;;;;;;;27.90;99.90;;;;;;5069929;28;20316;-71
2022/06/05 12:10:06;;;;;;;;;;;28.10;99.90;;;;;;5067789;28;20504;-72
2022/06/05 12:12:32;;;;;;;;;;;28.20;99.90;;;;;;5075224;28;20262;-72
2022/06/05 12:15:04;;;;;;;;;;;28.40;99.90;;;;;;5075885;28;19912;-73
2022/06/05 12:17:42;;;;;;;;;;;28.50;99.90;;;;;;5071559;28;20459;-73
2022/06/05 12:20:13;;;;;;;;;;;28.70;99.90;;;;;;5072208;28;19916;-72
2022/06/05 12:22:56;;;;;;;;;;;28.70;99.90;;;;;;5065392;28;20366;-71
2022/06/05 12:25:24;;;;;;;;;;;28.70;99.90;;;;;;5058570;28;20015;-72
2022/06/05 12:27:50;;;;;;;;;;;28.70;99.90;;;;;;5078641;28;19953;-72
2022/06/05 12:30:20;;;;;;;;;;;28.90;99.90;;;;;;5065707;28;19987;-72
2022/06/05 12:32:52;;;;;;;;;;;29.00;99.90;;;;;;5065439;28;20003;-72
2022/06/05 12:35:20;;;;;;;;;;;28.80;99.90;;;;;;5083566;28;19922;-73
2022/06/05 12:37:51;;;;;;;;;;;28.70;99.90;;;;;;5074503;28;20384;-74
2022/06/05 12:40:18;;;;;;;;;;;28.60;99.90;;;;;;5072731;28;19912;-72
2022/06/05 12:43:16;;;;;;;;;;;28.60;99.90;;;;;;5092334;28;19923;-71
2022/06/05 12:45:43;;;;;;;;;;;28.80;99.90;;;;;;5073853;28;19980;-73
2022/06/05 12:48:22;;;;;;;;;;;29.00;99.90;;;;;;5068152;28;19947;-73
2022/06/05 12:50:51;;;;;;;;;;;29.00;99.90;;;;;;5068183;28;19920;-73
2022/06/05 12:53:35;;;;;;;;;;;29.00;99.90;;;;;;5082751;28;20298;-72
2022/06/05 12:56:07;;;;;;;;;;;29.10;99.90;;;;;;5064602;28;20015;-73
2022/06/05 12:58:48;;;;;;;;;;;28.90;99.90;;;;;;5081437;28;19919;-71
2022/06/05 13:01:23;;;;;;;;;;;29.00;99.90;;;;;;5063910;28;19924;-73
2022/06/05 13:03:52;;;;;;;;;;;28.90;99.90;;;;;;5061388;28;20282;-74
2022/06/05 13:06:17;;;;;;;;;;;28.80;99.90;;;;;;5085324;28;19979;-73
2022/06/05 13:08:46;;;;;;;;;;;28.60;99.90;;;;;;5058106;28;19948;-70
2022/06/05 13:11:24;;;;;;;;;;;28.50;99.90;;;;;;5089485;28;19966;-74
2022/06/05 13:13:52;;;;;;;;;;;28.30;99.90;;;;;;5066288;28;19912;-73
2022/06/05 13:16:31;;;;;;;;;;;28.30;99.90;;;;;;5064925;28;19922;-73
2022/06/05 13:19:17;;;;;;;;;;;28.20;99.90;;;;;;5072394;28;19913;-69
2022/06/05 13:22:01;;;;;;;;;;;28.40;99.90;;;;;;5064773;28;19988;-72
2022/06/05 13:24:27;;;;;;;;;;;28.50;99.90;;;;;;5081791;28;19934;-74
2022/06/05 13:27:01;;;;;;;;;;;29.00;99.90;;;;;;5078475;28;19920;-74
2022/06/05 13:29:37;;;;;;;;;;;29.70;99.90;;;;;;5063662;28;19981;-72
2022/06/05 13:32:12;;;;;;;;;;;30.40;99.90;;;;;;5061791;28;19921;-73
2022/06/05 13:34:50;;;;;;;;;;;30.80;99.90;;;;;;5066737;28;20305;-72
2022/06/05 13:37:16;;;;;;;;;;;31.10;99.90;;;;;;5085243;28;20566;-73
2022/06/05 13:39:51;;;;;;;;;;;30.90;99.90;;;;;;5065184;28;20508;-72
2022/06/05 13:42:18;;;;;;;;;;;31.00;99.90;;;;;;5065359;28;19948;-76
2022/06/05 13:44:51;;;;;;;;;;;31.10;99.90;;;;;;5066270;28;19920;-72
2022/06/05 13:47:27;;;;;;;;;;;31.00;99.90;;;;;;5066628;28;19913;-71
2022/06/05 13:50:11;;;;;;;;;;;30.90;99.90;;;;;;5081184;28;19920;-74
2022/06/05 13:52:45;;;;;;;;;;;31.00;99.90;;;;;;5069320;28;19955;-73
2022/06/05 13:55:11;;;;;;;;;;;30.90;99.90;;;;;;5085582;28;19942;-73
2022/06/05 13:57:40;;;;;;;;;;;31.10;99.90;;;;;;5064930;28;19916;-74
2022/06/05 14:00:28;;;;;;;;;;;31.10;99.90;;;;;;5066735;28;20297;-72
2022/06/05 14:03:15;;;;;;;;;;;30.90;99.90;;;;;;5058771;28;19908;-72
2022/06/05 14:05:45;;;;;;;;;;;30.60;99.90;;;;;;5066309;28;19912;-72
2022/06/05 14:08:38;;;;;;;;;;;30.40;99.90;;;;;;5064347;28;20011;-73
2022/06/05 14:11:05;;;;;;;;;;;30.40;99.90;;;;;;5053430;28;19928;-73
2022/06/05 14:13:39;;;;;;;;;;;30.20;99.90;;;;;;5057890;28;19954;-72
2022/06/05 14:16:05;;;;;;;;;;;29.90;99.90;;;;;;5065602;28;20393;-72
2022/06/05 14:19:03;;;;;;;;;;;29.90;99.90;;;;;;5068561;28;19916;-70
2022/06/05 14:21:31;;;;;;;;;;;29.80;99.90;;;;;;5017310;28;19923;-72
2022/06/05 14:23:57;;;;;;;;;;;29.90;99.90;;;;;;5085327;28;19958;-72
2022/06/05 14:26:34;;;;;;;;;;;29.60;99.90;;;;;;5065881;28;19952;-73
2022/06/05 14:29:00;;;;;;;;;;;29.50;99.90;;;;;;5068322;28;20019;-74
2022/06/05 14:31:25;;;;;;;;;;;29.40;99.90;;;;;;5066278;28;20012;-73
2022/06/05 14:33:53;;;;;;;;;;;29.60;99.90;;;;;;5071290;28;20346;-71
2022/06/05 14:36:34;;;;;;;;;;;29.80;99.90;;;;;;5068710;28;19916;-75
2022/06/05 14:39:17;;;;;;;;;;;29.80;99.90;;;;;;5060095;28;19912;-70
2022/06/05 14:41:48;;;;;;;;;;;30.00;99.90;;;;;;5067998;28;20554;-73
2022/06/05 14:44:17;;;;;;;;;;;30.00;99.90;;;;;;5067269;28;20297;-75
2022/06/05 14:47:01;;;;;;;;;;;29.90;99.90;;;;;;5065277;28;19920;-73
2022/06/05 14:49:32;;;;;;;;;;;29.60;99.90;;;;;;5068022;28;19909;-74